sensor_id;sensor_type;location;lat;lon;timestamp;P1;durP1;ratioP1;P2;durP2;ratioP2
59653;SDS011;66556;52.008;5.432;2023-02-17T00:01:08;23.4;;;21.1;;
59653;SDS011;66556;52.008;5.432;2023-02-17T00:02:45;22.3;;;20.0;;
59653;SDS011;66556;52.008;5.432;2023-02-17T00:05:57;23.4;;;21.0;;
59653;SDS011;66556;52.008;5.432;2023-02-17T00:07:34;23.4;;;21.0;;
59653;SDS011;66556;52.008;5.432;2023-02-17T00:09:11;23.4;;;21.1;;
59653;SDS011;66556;52.008;5.432;2023-02-17T00:10:53;24.5;;;22.0;;
59653;SDS011;66556;52.008;5.432;2023-02-17T00:14:08;22.8;;;20.5;;
59653;SDS011;66556;52.008;5.432;2023-02-17T00:15:46;23.3;;;20.9;;
59653;SDS011;66556;52.008;5.432;2023-02-17T00:17:22;22.6;;;20.2;;
59653;SDS011;66556;52.008;5.432;2023-02-17T00:20:37;22.1;;;19.91;;
59653;SDS011;66556;52.008;5.432;2023-02-17T00:22:13;23.2;;;20.9;;
59653;SDS011;66556;52.008;5.432;2023-02-17T00:23:49;24.7;;;22.1;;
59653;SDS011;66556;52.008;5.432;2023-02-17T00:25:26;23.9;;;21.4;;
59653;SDS011;66556;52.008;5.432;2023-02-17T00:28:39;24.0;;;21.6;;
59653;SDS011;66556;52.008;5.432;2023-02-17T00:30:16;24.3;;;21.7;;
59653;SDS011;66556;52.008;5.432;2023-02-17T00:31:53;25.8;;;23.1;;
59653;SDS011;66556;52.008;5.432;2023-02-17T00:35:07;23.9;;;21.4;;
59653;SDS011;66556;52.008;5.432;2023-02-17T00:36:43;23.4;;;21.0;;
59653;SDS011;66556;52.008;5.432;2023-02-17T00:38:20;21.7;;;19.61;;
59653;SDS011;66556;52.008;5.432;2023-02-17T00:41:33;22.5;;;20.11;;
59653;SDS011;66556;52.008;5.432;2023-02-17T00:43:10;21.1;;;19.0;;
59653;SDS011;66556;52.008;5.432;2023-02-17T00:44:46;20.7;;;18.5;;
59653;SDS011;66556;52.008;5.432;2023-02-17T00:46:22;22.3;;;20.11;;
59653;SDS011;66556;52.008;5.432;2023-02-17T00:49:35;21.7;;;19.5;;
59653;SDS011;66556;52.008;5.432;2023-02-17T00:51:12;20.9;;;18.8;;
59653;SDS011;66556;52.008;5.432;2023-02-17T00:52:51;21.4;;;19.3;;
59653;SDS011;66556;52.008;5.432;2023-02-17T00:56:04;21.5;;;19.11;;
59653;SDS011;66556;52.008;5.432;2023-02-17T00:57:41;21.4;;;19.3;;
59653;SDS011;66556;52.008;5.432;2023-02-17T00:59:17;21.6;;;19.41;;
59653;SDS011;66556;52.008;5.432;2023-02-17T01:02:30;22.0;;;19.7;;
59653;SDS011;66556;52.008;5.432;2023-02-17T01:04:06;21.0;;;18.91;;
59653;SDS011;66556;52.008;5.432;2023-02-17T01:05:43;21.5;;;19.3;;
59653;SDS011;66556;52.008;5.432;2023-02-17T01:07:23;20.41;;;18.3;;
59653;SDS011;66556;52.008;5.432;2023-02-17T01:10:37;22.2;;;19.91;;
59653;SDS011;66556;52.008;5.432;2023-02-17T01:12:17;21.7;;;19.5;;
59653;SDS011;66556;52.008;5.432;2023-02-17T01:13:53;21.7;;;19.5;;
59653;SDS011;66556;52.008;5.432;2023-02-17T01:17:13;23.2;;;20.8;;
59653;SDS011;66556;52.008;5.432;2023-02-17T01:18:49;23.5;;;20.8;;
59653;SDS011;66556;52.008;5.432;2023-02-17T01:20:26;22.4;;;20.0;;
59653;SDS011;66556;52.008;5.432;2023-02-17T01:22:02;22.4;;;20.0;;
59653;SDS011;66556;52.008;5.432;2023-02-17T01:25:14;23.3;;;20.8;;
59653;SDS011;66556;52.008;5.432;2023-02-17T01:26:50;25.4;;;21.0;;
59653;SDS011;66556;52.008;5.432;2023-02-17T01:28:30;23.4;;;20.9;;
59653;SDS011;66556;52.008;5.432;2023-02-17T01:31:43;25.5;;;21.3;;
59653;SDS011;66556;52.008;5.432;2023-02-17T01:33:19;25.4;;;22.3;;
59653;SDS011;66556;52.008;5.432;2023-02-17T01:34:55;26.4;;;21.9;;
59653;SDS011;66556;52.008;5.432;2023-02-17T01:36:31;25.7;;;22.9;;
59653;SDS011;66556;52.008;5.432;2023-02-17T01:39:44;27.6;;;23.1;;
59653;SDS011;66556;52.008;5.432;2023-02-17T01:41:21;24.8;;;22.2;;
59653;SDS011;66556;52.008;5.432;2023-02-17T01:43:00;28.2;;;23.0;;
59653;SDS011;66556;52.008;5.432;2023-02-17T01:47:43;28.7;;;23.9;;
59653;SDS011;66556;52.008;5.432;2023-02-17T01:49:26;27.6;;;22.9;;
59653;SDS011;66556;52.008;5.432;2023-02-17T01:51:08;30.1;;;24.2;;
59653;SDS011;66556;52.008;5.432;2023-02-17T01:54:27;30.6;;;24.1;;
59653;SDS011;66556;52.008;5.432;2023-02-17T01:56:10;32.9;;;25.1;;
59653;SDS011;66556;52.008;5.432;2023-02-17T01:57:49;29.6;;;24.6;;
59653;SDS011;66556;52.008;5.432;2023-02-17T02:01:05;33.9;;;24.4;;
59653;SDS011;66556;52.008;5.432;2023-02-17T02:02:45;33.4;;;26.4;;
59653;SDS011;66556;52.008;5.432;2023-02-17T02:04:25;32.0;;;24.7;;
59653;SDS011;66556;52.008;5.432;2023-02-17T02:09:29;33.21;;;24.5;;
59653;SDS011;66556;52.008;5.432;2023-02-17T02:11:10;33.21;;;24.5;;
59653;SDS011;66556;52.008;5.432;2023-02-17T02:12:46;32.1;;;22.7;;
59653;SDS011;66556;52.008;5.432;2023-02-17T02:14:22;32.71;;;22.3;;
59653;SDS011;66556;52.008;5.432;2023-02-17T02:17:49;30.9;;;21.3;;
59653;SDS011;66556;52.008;5.432;2023-02-17T02:19:44;31.7;;;21.7;;
59653;SDS011;66556;52.008;5.432;2023-02-17T02:23:26;33.3;;;21.8;;
59653;SDS011;66556;52.008;5.432;2023-02-17T02:25:33;32.4;;;21.7;;
59653;SDS011;66556;52.008;5.432;2023-02-17T02:27:40;32.8;;;21.9;;
59653;SDS011;66556;52.008;5.432;2023-02-17T02:29:29;30.5;;;22.1;;
59653;SDS011;66556;52.008;5.432;2023-02-17T02:33:15;34.1;;;23.3;;
59653;SDS011;66556;52.008;5.432;2023-02-17T02:40:12;29.4;;;21.0;;
59653;SDS011;66556;52.008;5.432;2023-02-17T02:41:52;34.1;;;24.1;;
59653;SDS011;66556;52.008;5.432;2023-02-17T02:43:31;35.0;;;22.9;;
59653;SDS011;66556;52.008;5.432;2023-02-17T02:46:54;30.7;;;22.3;;
59653;SDS011;66556;52.008;5.432;2023-02-17T02:48:32;31.0;;;21.4;;
59653;SDS011;66556;52.008;5.432;2023-02-17T02:50:10;33.3;;;22.6;;
59653;SDS011;66556;52.008;5.432;2023-02-17T02:51:52;31.1;;;22.1;;
59653;SDS011;66556;52.008;5.432;2023-02-17T02:55:41;29.9;;;21.4;;
59653;SDS011;66556;52.008;5.432;2023-02-17T02:57:32;32.21;;;23.2;;
59653;SDS011;66556;52.008;5.432;2023-02-17T02:59:24;30.0;;;22.5;;
59653;SDS011;66556;52.008;5.432;2023-02-17T03:01:15;31.7;;;22.6;;
59653;SDS011;66556;52.008;5.432;2023-02-17T03:03:00;28.1;;;21.3;;
59653;SDS011;66556;52.008;5.432;2023-02-17T03:04:46;28.5;;;21.6;;
59653;SDS011;66556;52.008;5.432;2023-02-17T03:06:33;30.1;;;22.2;;
59653;SDS011;66556;52.008;5.432;2023-02-17T03:10:00;26.2;;;20.7;;
59653;SDS011;66556;52.008;5.432;2023-02-17T03:11:38;26.4;;;20.41;;
59653;SDS011;66556;52.008;5.432;2023-02-17T03:13:16;26.2;;;20.11;;
59653;SDS011;66556;52.008;5.432;2023-02-17T03:14:55;26.8;;;21.0;;
59653;SDS011;66556;52.008;5.432;2023-02-17T03:18:14;27.5;;;20.3;;
59653;SDS011;66556;52.008;5.432;2023-02-17T03:19:50;26.9;;;20.5;;
59653;SDS011;66556;52.008;5.432;2023-02-17T03:21:28;26.4;;;19.91;;
59653;SDS011;66556;52.008;5.432;2023-02-17T03:23:11;23.9;;;19.61;;
59653;SDS011;66556;52.008;5.432;2023-02-17T03:26:25;26.3;;;20.8;;
59653;SDS011;66556;52.008;5.432;2023-02-17T03:28:01;26.9;;;20.9;;
59653;SDS011;66556;52.008;5.432;2023-02-17T03:29:37;26.9;;;20.9;;
59653;SDS011;66556;52.008;5.432;2023-02-17T03:34:26;27.1;;;20.41;;
59653;SDS011;66556;52.008;5.432;2023-02-17T03:36:03;28.2;;;21.7;;
59653;SDS011;66556;52.008;5.432;2023-02-17T03:39:16;27.9;;;22.2;;
59653;SDS011;66556;52.008;5.432;2023-02-17T03:40:52;27.7;;;21.6;;
59653;SDS011;66556;52.008;5.432;2023-02-17T03:42:29;26.9;;;21.5;;
59653;SDS011;66556;52.008;5.432;2023-02-17T03:44:07;27.9;;;21.9;;
59653;SDS011;66556;52.008;5.432;2023-02-17T03:47:18;31.2;;;22.8;;
59653;SDS011;66556;52.008;5.432;2023-02-17T03:48:55;30.1;;;22.3;;
59653;SDS011;66556;52.008;5.432;2023-02-17T03:50:31;27.9;;;22.3;;
59653;SDS011;66556;52.008;5.432;2023-02-17T03:53:44;31.1;;;23.0;;
59653;SDS011;66556;52.008;5.432;2023-02-17T03:55:21;31.7;;;22.4;;
59653;SDS011;66556;52.008;5.432;2023-02-17T03:56:58;30.0;;;22.1;;
59653;SDS011;66556;52.008;5.432;2023-02-17T04:00:11;28.8;;;21.7;;
59653;SDS011;66556;52.008;5.432;2023-02-17T04:01:48;27.2;;;21.3;;
59653;SDS011;66556;52.008;5.432;2023-02-17T04:03:24;27.8;;;22.0;;
59653;SDS011;66556;52.008;5.432;2023-02-17T04:06:37;27.3;;;20.5;;
59653;SDS011;66556;52.008;5.432;2023-02-17T04:08:13;28.9;;;21.2;;
59653;SDS011;66556;52.008;5.432;2023-02-17T04:09:49;26.4;;;20.11;;
59653;SDS011;66556;52.008;5.432;2023-02-17T04:11:25;28.3;;;20.8;;
59653;SDS011;66556;52.008;5.432;2023-02-17T04:14:38;27.1;;;19.91;;
59653;SDS011;66556;52.008;5.432;2023-02-17T04:16:14;25.8;;;18.8;;
59653;SDS011;66556;52.008;5.432;2023-02-17T04:17:50;27.6;;;18.41;;
59653;SDS011;66556;52.008;5.432;2023-02-17T04:21:03;25.9;;;18.2;;
59653;SDS011;66556;52.008;5.432;2023-02-17T04:22:40;26.5;;;18.7;;
59653;SDS011;66556;52.008;5.432;2023-02-17T04:24:17;24.4;;;18.61;;
59653;SDS011;66556;52.008;5.432;2023-02-17T04:27:29;25.4;;;18.7;;
59653;SDS011;66556;52.008;5.432;2023-02-17T04:29:05;23.5;;;18.5;;
59653;SDS011;66556;52.008;5.432;2023-02-17T04:30:42;25.6;;;18.41;;
59653;SDS011;66556;52.008;5.432;2023-02-17T04:32:19;23.8;;;18.3;;
59653;SDS011;66556;52.008;5.432;2023-02-17T04:35:32;23.6;;;18.2;;
59653;SDS011;66556;52.008;5.432;2023-02-17T04:37:08;25.4;;;19.2;;
59653;SDS011;66556;52.008;5.432;2023-02-17T04:38:44;21.0;;;16.9;;
59653;SDS011;66556;52.008;5.432;2023-02-17T04:41:57;26.9;;;18.5;;
59653;SDS011;66556;52.008;5.432;2023-02-17T04:43:33;21.6;;;17.2;;
59653;SDS011;66556;52.008;5.432;2023-02-17T04:45:10;20.7;;;17.0;;
59653;SDS011;66556;52.008;5.432;2023-02-17T04:48:24;23.1;;;18.3;;
59653;SDS011;66556;52.008;5.432;2023-02-17T04:50:02;23.9;;;18.11;;
59653;SDS011;66556;52.008;5.432;2023-02-17T04:51:39;27.4;;;19.0;;
59653;SDS011;66556;52.008;5.432;2023-02-17T04:53:15;26.5;;;18.2;;
59653;SDS011;66556;52.008;5.432;2023-02-17T04:56:29;25.7;;;19.3;;
59653;SDS011;66556;52.008;5.432;2023-02-17T04:58:06;23.5;;;17.7;;
59653;SDS011;66556;52.008;5.432;2023-02-17T04:59:44;25.1;;;19.11;;
59653;SDS011;66556;52.008;5.432;2023-02-17T05:02:56;26.9;;;19.2;;
59653;SDS011;66556;52.008;5.432;2023-02-17T05:04:33;26.9;;;19.2;;
59653;SDS011;66556;52.008;5.432;2023-02-17T05:06:10;23.2;;;18.0;;
59653;SDS011;66556;52.008;5.432;2023-02-17T05:09:23;25.4;;;18.91;;
59653;SDS011;66556;52.008;5.432;2023-02-17T05:10:59;27.5;;;20.5;;
59653;SDS011;66556;52.008;5.432;2023-02-17T05:12:36;25.2;;;19.5;;
59653;SDS011;66556;52.008;5.432;2023-02-17T05:14:13;23.0;;;18.61;;
59653;SDS011;66556;52.008;5.432;2023-02-17T05:17:25;26.9;;;19.91;;
59653;SDS011;66556;52.008;5.432;2023-02-17T05:19:01;25.3;;;19.2;;
59653;SDS011;66556;52.008;5.432;2023-02-17T05:20:38;26.5;;;18.8;;
59653;SDS011;66556;52.008;5.432;2023-02-17T05:23:51;26.5;;;18.8;;
59653;SDS011;66556;52.008;5.432;2023-02-17T05:25:28;28.0;;;20.3;;
59653;SDS011;66556;52.008;5.432;2023-02-17T05:27:05;31.6;;;21.8;;
59653;SDS011;66556;52.008;5.432;2023-02-17T05:30:17;31.4;;;21.8;;
59653;SDS011;66556;52.008;5.432;2023-02-17T05:31:54;32.0;;;22.5;;
59653;SDS011;66556;52.008;5.432;2023-02-17T05:33:30;34.4;;;23.3;;
59653;SDS011;66556;52.008;5.432;2023-02-17T05:35:08;36.4;;;23.2;;
59653;SDS011;66556;52.008;5.432;2023-02-17T05:38:21;33.8;;;22.6;;
59653;SDS011;66556;52.008;5.432;2023-02-17T05:39:57;32.3;;;21.8;;
59653;SDS011;66556;52.008;5.432;2023-02-17T05:41:33;30.9;;;21.5;;
59653;SDS011;66556;52.008;5.432;2023-02-17T05:44:45;28.1;;;20.6;;
59653;SDS011;66556;52.008;5.432;2023-02-17T05:46:22;32.6;;;20.8;;
59653;SDS011;66556;52.008;5.432;2023-02-17T05:47:57;31.4;;;21.1;;
59653;SDS011;66556;52.008;5.432;2023-02-17T05:51:12;28.5;;;20.0;;
59653;SDS011;66556;52.008;5.432;2023-02-17T05:52:49;33.8;;;20.9;;
59653;SDS011;66556;52.008;5.432;2023-02-17T05:54:25;30.2;;;19.7;;
59653;SDS011;66556;52.008;5.432;2023-02-17T05:56:01;30.3;;;20.11;;
59653;SDS011;66556;52.008;5.432;2023-02-17T05:59:13;34.1;;;21.4;;
59653;SDS011;66556;52.008;5.432;2023-02-17T06:00:49;30.4;;;20.6;;
59653;SDS011;66556;52.008;5.432;2023-02-17T06:02:26;31.7;;;20.2;;
59653;SDS011;66556;52.008;5.432;2023-02-17T06:05:38;29.2;;;19.91;;
59653;SDS011;66556;52.008;5.432;2023-02-17T06:07:15;30.5;;;20.5;;
59653;SDS011;66556;52.008;5.432;2023-02-17T06:08:51;31.5;;;20.41;;
59653;SDS011;66556;52.008;5.432;2023-02-17T06:12:04;34.1;;;21.6;;
59653;SDS011;66556;52.008;5.432;2023-02-17T06:13:40;37.21;;;23.2;;
59653;SDS011;66556;52.008;5.432;2023-02-17T06:15:17;36.9;;;22.8;;
59653;SDS011;66556;52.008;5.432;2023-02-17T06:16:55;37.71;;;22.4;;
59653;SDS011;66556;52.008;5.432;2023-02-17T06:20:08;34.31;;;21.7;;
59653;SDS011;66556;52.008;5.432;2023-02-17T06:21:45;32.6;;;21.3;;
59653;SDS011;66556;52.008;5.432;2023-02-17T06:23:21;34.4;;;21.6;;
59653;SDS011;66556;52.008;5.432;2023-02-17T06:26:35;33.1;;;21.6;;
59653;SDS011;66556;52.008;5.432;2023-02-17T06:28:11;34.71;;;21.2;;
59653;SDS011;66556;52.008;5.432;2023-02-17T06:33:00;29.8;;;19.41;;
59653;SDS011;66556;52.008;5.432;2023-02-17T06:34:37;29.8;;;19.0;;
59653;SDS011;66556;52.008;5.432;2023-02-17T06:36:13;37.21;;;21.4;;
59653;SDS011;66556;52.008;5.432;2023-02-17T06:37:49;31.7;;;20.5;;
59653;SDS011;66556;52.008;5.432;2023-02-17T06:41:02;31.9;;;19.7;;
59653;SDS011;66556;52.008;5.432;2023-02-17T06:42:38;30.3;;;20.11;;
59653;SDS011;66556;52.008;5.432;2023-02-17T06:44:14;31.0;;;18.91;;
59653;SDS011;66556;52.008;5.432;2023-02-17T06:47:28;29.1;;;18.8;;
59653;SDS011;66556;52.008;5.432;2023-02-17T06:49:04;26.0;;;18.0;;
59653;SDS011;66556;52.008;5.432;2023-02-17T06:50:41;29.9;;;19.0;;
59653;SDS011;66556;52.008;5.432;2023-02-17T06:53:53;25.7;;;16.8;;
59653;SDS011;66556;52.008;5.432;2023-02-17T06:55:30;23.9;;;15.7;;
59653;SDS011;66556;52.008;5.432;2023-02-17T06:57:07;22.9;;;15.5;;
59653;SDS011;66556;52.008;5.432;2023-02-17T06:58:43;22.9;;;16.11;;
59653;SDS011;66556;52.008;5.432;2023-02-17T07:01:57;25.7;;;16.4;;
59653;SDS011;66556;52.008;5.432;2023-02-17T07:03:33;22.8;;;15.2;;
59653;SDS011;66556;52.008;5.432;2023-02-17T07:05:09;21.0;;;14.4;;
59653;SDS011;66556;52.008;5.432;2023-02-17T07:08:21;22.1;;;14.7;;
59653;SDS011;66556;52.008;5.432;2023-02-17T07:09:58;22.2;;;14.5;;
59653;SDS011;66556;52.008;5.432;2023-02-17T07:11:34;20.41;;;14.1;;
59653;SDS011;66556;52.008;5.432;2023-02-17T07:14:46;21.6;;;13.8;;
59653;SDS011;66556;52.008;5.432;2023-02-17T07:16:22;19.3;;;13.0;;
59653;SDS011;66556;52.008;5.432;2023-02-17T07:17:59;20.9;;;13.3;;
59653;SDS011;66556;52.008;5.432;2023-02-17T07:19:36;18.5;;;13.2;;
59653;SDS011;66556;52.008;5.432;2023-02-17T07:22:49;20.5;;;14.1;;
59653;SDS011;66556;52.008;5.432;2023-02-17T07:24:26;23.1;;;14.3;;
59653;SDS011;66556;52.008;5.432;2023-02-17T07:26:03;20.3;;;14.0;;
59653;SDS011;66556;52.008;5.432;2023-02-17T07:29:16;21.3;;;14.5;;
59653;SDS011;66556;52.008;5.432;2023-02-17T07:30:52;22.4;;;14.3;;
59653;SDS011;66556;52.008;5.432;2023-02-17T07:32:29;19.61;;;13.2;;
59653;SDS011;66556;52.008;5.432;2023-02-17T07:35:43;18.5;;;13.6;;
59653;SDS011;66556;52.008;5.432;2023-02-17T07:37:20;20.8;;;14.0;;
59653;SDS011;66556;52.008;5.432;2023-02-17T07:38:56;20.0;;;13.9;;
59653;SDS011;66556;52.008;5.432;2023-02-17T07:40:32;20.0;;;13.4;;
59653;SDS011;66556;52.008;5.432;2023-02-17T07:43:45;19.5;;;13.3;;
59653;SDS011;66556;52.008;5.432;2023-02-17T07:45:23;18.91;;;13.8;;
59653;SDS011;66556;52.008;5.432;2023-02-17T07:46:59;19.7;;;13.7;;
59653;SDS011;66556;52.008;5.432;2023-02-17T07:50:12;19.2;;;14.1;;
59653;SDS011;66556;52.008;5.432;2023-02-17T08:03:47;16.5;;;13.1;;
59653;SDS011;66556;52.008;5.432;2023-02-17T08:07:01;13.7;;;11.8;;
59653;SDS011;66556;52.008;5.432;2023-02-17T08:13:34;15.6;;;12.0;;
59653;SDS011;66556;52.008;5.432;2023-02-17T08:15:10;14.2;;;11.6;;
59653;SDS011;66556;52.008;5.432;2023-02-17T08:16:48;15.4;;;12.4;;
59653;SDS011;66556;52.008;5.432;2023-02-17T08:18:25;14.2;;;11.9;;
59653;SDS011;66556;52.008;5.432;2023-02-17T08:21:38;14.7;;;11.8;;
59653;SDS011;66556;52.008;5.432;2023-02-17T08:23:14;14.8;;;12.1;;
59653;SDS011;66556;52.008;5.432;2023-02-17T08:24:50;13.4;;;11.6;;
59653;SDS011;66556;52.008;5.432;2023-02-17T08:28:03;14.4;;;12.2;;
59653;SDS011;66556;52.008;5.432;2023-02-17T08:29:40;14.0;;;12.0;;
59653;SDS011;66556;52.008;5.432;2023-02-17T08:31:18;14.1;;;11.7;;
59653;SDS011;66556;52.008;5.432;2023-02-17T08:32:56;14.0;;;11.6;;
59653;SDS011;66556;52.008;5.432;2023-02-17T08:36:09;12.6;;;11.1;;
59653;SDS011;66556;52.008;5.432;2023-02-17T08:37:47;14.1;;;11.2;;
59653;SDS011;66556;52.008;5.432;2023-02-17T08:39:24;14.6;;;11.1;;
59653;SDS011;66556;52.008;5.432;2023-02-17T08:42:47;13.4;;;10.9;;
59653;SDS011;66556;52.008;5.432;2023-02-17T08:44:23;13.2;;;10.9;;
59653;SDS011;66556;52.008;5.432;2023-02-17T08:46:00;13.0;;;9.9;;
59653;SDS011;66556;52.008;5.432;2023-02-17T08:47:37;10.8;;;9.71;;
59653;SDS011;66556;52.008;5.432;2023-02-17T08:50:51;12.6;;;10.1;;
59653;SDS011;66556;52.008;5.432;2023-02-17T08:52:27;13.2;;;10.21;;
59653;SDS011;66556;52.008;5.432;2023-02-17T08:54:04;10.3;;;9.21;;
59653;SDS011;66556;52.008;5.432;2023-02-17T08:57:20;11.3;;;9.4;;
59653;SDS011;66556;52.008;5.432;2023-02-17T08:58:56;12.8;;;9.1;;
59653;SDS011;66556;52.008;5.432;2023-02-17T09:00:33;10.21;;;9.21;;
59653;SDS011;66556;52.008;5.432;2023-02-17T09:02:09;9.0;;;8.0;;
59653;SDS011;66556;52.008;5.432;2023-02-17T09:05:24;11.0;;;8.4;;
59653;SDS011;66556;52.008;5.432;2023-02-17T09:07:00;11.1;;;8.31;;
59653;SDS011;66556;52.008;5.432;2023-02-17T09:08:39;9.31;;;7.9;;
59653;SDS011;66556;52.008;5.432;2023-02-17T09:11:54;7.7;;;6.9;;
59653;SDS011;66556;52.008;5.432;2023-02-17T09:13:32;11.8;;;8.5;;
59653;SDS011;66556;52.008;5.432;2023-02-17T09:15:09;8.81;;;7.4;;
59653;SDS011;66556;52.008;5.432;2023-02-17T09:16:45;9.4;;;7.6;;
59653;SDS011;66556;52.008;5.432;2023-02-17T09:19:58;8.1;;;7.3;;
59653;SDS011;66556;52.008;5.432;2023-02-17T09:21:35;8.5;;;7.6;;
59653;SDS011;66556;52.008;5.432;2023-02-17T09:23:12;9.0;;;7.9;;
59653;SDS011;66556;52.008;5.432;2023-02-17T09:26:24;9.6;;;7.9;;
59653;SDS011;66556;52.008;5.432;2023-02-17T09:28:00;10.4;;;8.0;;
59653;SDS011;66556;52.008;5.432;2023-02-17T09:29:36;7.6;;;6.8;;
59653;SDS011;66556;52.008;5.432;2023-02-17T09:32:54;9.71;;;7.5;;
59653;SDS011;66556;52.008;5.432;2023-02-17T09:34:32;9.71;;;7.5;;
59653;SDS011;66556;52.008;5.432;2023-02-17T09:36:11;7.8;;;6.8;;
59653;SDS011;66556;52.008;5.432;2023-02-17T09:37:50;7.5;;;6.7;;
59653;SDS011;66556;52.008;5.432;2023-02-17T09:41:07;8.71;;;7.1;;
59653;SDS011;66556;52.008;5.432;2023-02-17T09:42:50;9.5;;;7.0;;
59653;SDS011;66556;52.008;5.432;2023-02-17T09:44:30;9.71;;;7.0;;
59653;SDS011;66556;52.008;5.432;2023-02-17T09:46:17;8.5;;;6.1;;
59653;SDS011;66556;52.008;5.432;2023-02-17T09:49:42;8.81;;;7.3;;
59653;SDS011;66556;52.008;5.432;2023-02-17T09:51:25;7.9;;;6.5;;
59653;SDS011;66556;52.008;5.432;2023-02-17T09:53:05;7.8;;;6.5;;
59653;SDS011;66556;52.008;5.432;2023-02-17T09:54:53;8.31;;;6.7;;
59653;SDS011;66556;52.008;5.432;2023-02-17T09:56:38;9.0;;;6.6;;
59653;SDS011;66556;52.008;5.432;2023-02-17T09:59:58;9.81;;;7.0;;
59653;SDS011;66556;52.008;5.432;2023-02-17T10:01:41;10.8;;;7.1;;
59653;SDS011;66556;52.008;5.432;2023-02-17T10:03:22;8.4;;;7.1;;
59653;SDS011;66556;52.008;5.432;2023-02-17T10:05:06;9.21;;;6.8;;
59653;SDS011;66556;52.008;5.432;2023-02-17T10:08:29;9.5;;;6.7;;
59653;SDS011;66556;52.008;5.432;2023-02-17T10:10:11;8.31;;;6.4;;
59653;SDS011;66556;52.008;5.432;2023-02-17T10:11:52;9.31;;;6.7;;
59653;SDS011;66556;52.008;5.432;2023-02-17T10:13:35;7.9;;;6.7;;
59653;SDS011;66556;52.008;5.432;2023-02-17T10:17:00;9.9;;;6.9;;
59653;SDS011;66556;52.008;5.432;2023-02-17T10:18:42;10.21;;;6.4;;
59653;SDS011;66556;52.008;5.432;2023-02-17T10:20:25;8.1;;;6.2;;
59653;SDS011;66556;52.008;5.432;2023-02-17T10:22:07;8.2;;;6.3;;
59653;SDS011;66556;52.008;5.432;2023-02-17T10:23:50;8.81;;;6.6;;
59653;SDS011;66556;52.008;5.432;2023-02-17T10:27:29;9.81;;;6.3;;
59653;SDS011;66556;52.008;5.432;2023-02-17T10:29:16;8.2;;;5.9;;
59653;SDS011;66556;52.008;5.432;2023-02-17T10:31:06;8.71;;;6.3;;
59653;SDS011;66556;52.008;5.432;2023-02-17T10:32:50;9.5;;;5.8;;
59653;SDS011;66556;52.008;5.432;2023-02-17T10:34:36;8.71;;;5.8;;
59653;SDS011;66556;52.008;5.432;2023-02-17T10:36:18;7.0;;;5.5;;
59653;SDS011;66556;52.008;5.432;2023-02-17T10:39:52;8.6;;;5.9;;
59653;SDS011;66556;52.008;5.432;2023-02-17T10:41:33;8.5;;;6.0;;
59653;SDS011;66556;52.008;5.432;2023-02-17T10:43:11;9.71;;;6.0;;
59653;SDS011;66556;52.008;5.432;2023-02-17T10:45:02;10.7;;;6.2;;
59653;SDS011;66556;52.008;5.432;2023-02-17T10:46:47;7.5;;;5.7;;
59653;SDS011;66556;52.008;5.432;2023-02-17T10:50:14;9.5;;;6.1;;
59653;SDS011;66556;52.008;5.432;2023-02-17T10:51:54;9.5;;;6.4;;
59653;SDS011;66556;52.008;5.432;2023-02-17T10:53:36;9.6;;;6.3;;
59653;SDS011;66556;52.008;5.432;2023-02-17T10:55:18;10.3;;;6.2;;
59653;SDS011;66556;52.008;5.432;2023-02-17T10:58:48;11.2;;;6.3;;
59653;SDS011;66556;52.008;5.432;2023-02-17T11:00:30;10.1;;;6.3;;
59653;SDS011;66556;52.008;5.432;2023-02-17T11:02:16;8.9;;;6.1;;
59653;SDS011;66556;52.008;5.432;2023-02-17T11:03:59;9.6;;;6.1;;
59653;SDS011;66556;52.008;5.432;2023-02-17T11:05:40;8.71;;;6.3;;
59653;SDS011;66556;52.008;5.432;2023-02-17T11:09:15;10.0;;;6.5;;
59653;SDS011;66556;52.008;5.432;2023-02-17T11:10:58;11.3;;;6.6;;
59653;SDS011;66556;52.008;5.432;2023-02-17T11:12:38;8.6;;;6.5;;
59653;SDS011;66556;52.008;5.432;2023-02-17T11:14:17;8.5;;;6.6;;
59653;SDS011;66556;52.008;5.432;2023-02-17T11:15:58;10.5;;;6.9;;
59653;SDS011;66556;52.008;5.432;2023-02-17T11:19:18;9.4;;;6.8;;
59653;SDS011;66556;52.008;5.432;2023-02-17T11:21:00;10.8;;;7.3;;
59653;SDS011;66556;52.008;5.432;2023-02-17T11:22:41;11.4;;;7.2;;
59653;SDS011;66556;52.008;5.432;2023-02-17T11:25:58;11.2;;;7.2;;
59653;SDS011;66556;52.008;5.432;2023-02-17T11:27:37;12.7;;;7.5;;
59653;SDS011;66556;52.008;5.432;2023-02-17T11:29:14;11.2;;;7.6;;
59653;SDS011;66556;52.008;5.432;2023-02-17T11:30:53;12.0;;;8.0;;
59653;SDS011;66556;52.008;5.432;2023-02-17T11:34:10;11.6;;;7.9;;
59653;SDS011;66556;52.008;5.432;2023-02-17T11:35:49;12.3;;;8.2;;
59653;SDS011;66556;52.008;5.432;2023-02-17T11:37:31;15.0;;;9.1;;
59653;SDS011;66556;52.008;5.432;2023-02-17T11:39:15;15.3;;;9.0;;
59653;SDS011;66556;52.008;5.432;2023-02-17T11:42:34;13.9;;;8.71;;
59653;SDS011;66556;52.008;5.432;2023-02-17T11:44:20;13.4;;;9.0;;
59653;SDS011;66556;52.008;5.432;2023-02-17T11:45:59;14.4;;;8.71;;
59653;SDS011;66556;52.008;5.432;2023-02-17T11:47:47;13.3;;;8.71;;
59653;SDS011;66556;52.008;5.432;2023-02-17T11:49:41;16.61;;;9.21;;
59653;SDS011;66556;52.008;5.432;2023-02-17T11:51:34;12.8;;;8.1;;
59653;SDS011;66556;52.008;5.432;2023-02-17T11:55:22;15.4;;;9.6;;
59653;SDS011;66556;52.008;5.432;2023-02-17T11:57:13;13.6;;;9.1;;
59653;SDS011;66556;52.008;5.432;2023-02-17T11:59:10;14.0;;;8.81;;
59653;SDS011;66556;52.008;5.432;2023-02-17T12:01:10;14.5;;;9.21;;
59653;SDS011;66556;52.008;5.432;2023-02-17T12:03:46;14.2;;;9.21;;
59653;SDS011;66556;52.008;5.432;2023-02-17T12:06:41;14.1;;;9.4;;
59653;SDS011;66556;52.008;5.432;2023-02-17T12:08:31;14.5;;;9.71;;
59653;SDS011;66556;52.008;5.432;2023-02-17T12:12:06;15.7;;;9.4;;
59653;SDS011;66556;52.008;5.432;2023-02-17T12:13:54;14.7;;;9.21;;
59653;SDS011;66556;52.008;5.432;2023-02-17T12:15:49;14.9;;;8.81;;
59653;SDS011;66556;52.008;5.432;2023-02-17T12:17:41;13.9;;;9.0;;
59653;SDS011;66556;52.008;5.432;2023-02-17T12:19:30;16.3;;;8.81;;
59653;SDS011;66556;52.008;5.432;2023-02-17T12:21:18;15.6;;;8.81;;
59653;SDS011;66556;52.008;5.432;2023-02-17T12:23:14;14.5;;;8.5;;
59653;SDS011;66556;52.008;5.432;2023-02-17T12:25:12;14.0;;;8.31;;
59653;SDS011;66556;52.008;5.432;2023-02-17T12:28:47;15.5;;;8.2;;
59653;SDS011;66556;52.008;5.432;2023-02-17T12:30:48;16.8;;;8.2;;
59653;SDS011;66556;52.008;5.432;2023-02-17T12:32:39;13.0;;;7.3;;
59653;SDS011;66556;52.008;5.432;2023-02-17T12:34:29;15.1;;;7.5;;
59653;SDS011;66556;52.008;5.432;2023-02-17T12:36:10;14.3;;;7.2;;
59653;SDS011;66556;52.008;5.432;2023-02-17T12:37:50;14.3;;;6.8;;
59653;SDS011;66556;52.008;5.432;2023-02-17T12:41:19;12.6;;;6.4;;
59653;SDS011;66556;52.008;5.432;2023-02-17T12:43:00;14.6;;;6.9;;
59653;SDS011;66556;52.008;5.432;2023-02-17T12:44:43;12.4;;;6.6;;
59653;SDS011;66556;52.008;5.432;2023-02-17T12:46:28;13.7;;;6.4;;
59653;SDS011;66556;52.008;5.432;2023-02-17T12:48:11;15.2;;;6.3;;
59653;SDS011;66556;52.008;5.432;2023-02-17T12:51:39;13.4;;;6.1;;
59653;SDS011;66556;52.008;5.432;2023-02-17T12:53:22;16.2;;;6.3;;
59653;SDS011;66556;52.008;5.432;2023-02-17T12:55:10;12.5;;;5.9;;
59653;SDS011;66556;52.008;5.432;2023-02-17T12:56:56;13.6;;;6.0;;
59653;SDS011;66556;52.008;5.432;2023-02-17T12:58:40;16.2;;;5.9;;
59653;SDS011;66556;52.008;5.432;2023-02-17T13:02:01;16.5;;;5.9;;
59653;SDS011;66556;52.008;5.432;2023-02-17T13:03:39;12.7;;;5.6;;
59653;SDS011;66556;52.008;5.432;2023-02-17T13:05:18;17.91;;;5.9;;
59653;SDS011;66556;52.008;5.432;2023-02-17T13:07:05;15.2;;;6.0;;
59653;SDS011;66556;52.008;5.432;2023-02-17T13:10:34;14.5;;;5.5;;
59653;SDS011;66556;52.008;5.432;2023-02-17T13:12:16;15.5;;;5.3;;
59653;SDS011;66556;52.008;5.432;2023-02-17T13:14:10;17.61;;;5.9;;